Time;durP1;ratioP1;P1;durP2;ratioP2;P2;SDS_P1;SDS_P2;PMS_P1;PMS_P2;Temp;Humidity;BMP_temperature;BMP_pressure;BME280_temperature;BME280_humidity;BME280_pressure;Samples;Min_cycle;Max_cycle;Signal;HPM_P1;HPM_P2
2022/01/10 00:00:50;;;;;;;4.68;4.18;;;8.70;99.90;;;;;;5016277;28;20022;-78
2022/01/10 00:03:16;;;;;;;5.82;5.00;;;8.70;99.90;;;;;;5016091;28;20052;-77
2022/01/10 00:05:42;;;;;;;6.47;5.13;;;8.70;99.90;;;;;;5016079;28;20029;-77
2022/01/10 00:08:08;;;;;;;8.95;6.20;;;8.70;99.90;;;;;;5015629;28;20410;-78
2022/01/10 00:10:34;;;;;;;10.13;7.13;;;8.70;99.90;;;;;;5017334;28;20037;-78
2022/01/10 00:13:00;;;;;;;10.70;7.65;;;8.70;99.90;;;;;;5017474;28;20057;-77
2022/01/10 00:15:26;;;;;;;8.65;7.28;;;8.70;99.90;;;;;;5016425;28;20022;-77
2022/01/10 00:19:24;;;;;;;;;;;;;;;;;;;;;
2022/01/10 00:21:33;;;;;;;12.20;7.85;;;8.70;99.90;;;;;;5006673;28;20113;-78
2022/01/10 00:23:59;;;;;;;12.23;8.05;;;8.70;99.90;;;;;;5016950;28;20037;-78
2022/01/10 00:26:25;;;;;;;12.52;7.97;;;8.70;99.90;;;;;;5015841;28;20034;-77
2022/01/10 00:28:51;;;;;;;13.18;9.23;;;8.70;99.90;;;;;;5015887;28;20026;-77
2022/01/10 00:31:16;;;;;;;10.93;7.78;;;8.70;99.90;;;;;;5017689;28;20033;-77
2022/01/10 00:33:42;;;;;;;9.43;7.53;;;8.70;99.90;;;;;;5017282;28;20494;-78
2022/01/10 00:36:08;;;;;;;14.00;10.07;;;8.70;99.90;;;;;;5019793;28;20031;-77
2022/01/10 00:38:34;;;;;;;10.13;8.65;;;8.70;99.90;;;;;;5020788;28;20155;-77
2022/01/10 00:41:00;;;;;;;12.18;8.00;;;8.70;99.90;;;;;;5019802;28;20014;-77
2022/01/10 00:43:35;;;;;;;11.77;8.32;;;8.60;99.90;;;;;;5019543;28;20466;-77
2022/01/10 00:46:03;;;;;;;9.65;6.88;;;8.60;99.90;;;;;;5020971;28;20022;-77
2022/01/10 00:48:29;;;;;;;7.25;6.18;;;8.60;99.90;;;;;;5021141;28;20133;-78
2022/01/10 00:50:55;;;;;;;9.07;5.85;;;8.50;99.90;;;;;;5019588;28;20022;-77
2022/01/10 00:53:21;;;;;;;7.50;6.07;;;8.50;99.90;;;;;;5019373;28;20026;-77
2022/01/10 00:55:47;;;;;;;11.55;8.75;;;8.50;99.90;;;;;;5020879;28;20030;-77
2022/01/10 00:58:13;;;;;;;6.00;5.40;;;8.50;99.90;;;;;;5020777;28;20034;-77
2022/01/10 01:00:38;;;;;;;8.35;5.57;;;8.50;99.90;;;;;;5020840;28;20033;-77
2022/01/10 01:03:04;;;;;;;7.68;4.90;;;8.50;99.90;;;;;;5020632;28;20109;-78
2022/01/10 01:05:33;;;;;;;3.95;3.55;;;8.50;99.90;;;;;;5020796;28;20105;-77
2022/01/10 01:08:02;;;;;;;5.60;4.38;;;8.50;99.90;;;;;;5018986;28;20146;-77
2022/01/10 01:13:53;;;;;;;5.90;4.40;;;8.40;99.90;;;;;;5020642;28;20394;-77
2022/01/10 01:24:03;;;;;;;9.35;5.10;;;8.40;99.90;;;;;;5040058;28;20039;-77
2022/01/10 01:26:30;;;;;;;8.43;4.38;;;8.40;99.90;;;;;;5038504;28;20057;-77
2022/01/10 01:28:57;;;;;;;5.43;4.53;;;8.40;99.90;;;;;;5039960;28;20025;-77
2022/01/10 01:31:22;;;;;;;8.75;4.00;;;8.40;99.90;;;;;;5038646;28;20021;-77
2022/01/10 01:33:48;;;;;;;5.50;3.75;;;8.40;99.90;;;;;;5039694;28;20108;-77
2022/01/10 01:36:16;;;;;;;4.47;3.55;;;8.40;99.90;;;;;;5024836;28;20084;-76
2022/01/10 01:38:42;;;;;;;4.35;3.20;;;8.40;99.90;;;;;;5019724;28;20088;-77
2022/01/10 01:41:22;;;;;;;3.40;3.10;;;8.40;99.90;;;;;;5018839;28;20026;-77
2022/01/10 01:43:49;;;;;;;4.07;3.33;;;8.40;99.90;;;;;;5020070;28;20036;-77
2022/01/10 01:46:16;;;;;;;3.58;3.17;;;8.40;99.90;;;;;;5018991;28;20084;-78
2022/01/10 01:48:42;;;;;;;4.15;3.53;;;8.40;99.90;;;;;;5020185;28;20033;-77
2022/01/10 01:51:08;;;;;;;4.30;3.50;;;8.40;99.90;;;;;;5019655;28;20387;-77
2022/01/10 01:53:36;;;;;;;4.78;3.92;;;8.40;99.90;;;;;;5018267;28;20117;-77
2022/01/10 01:56:04;;;;;;;4.53;3.42;;;8.40;99.90;;;;;;5018204;28;20061;-77
2022/01/10 01:58:29;;;;;;;4.07;3.58;;;8.30;99.90;;;;;;5019478;28;20034;-77
2022/01/10 02:00:55;;;;;;;3.83;3.30;;;8.30;99.90;;;;;;5019447;28;20105;-77
2022/01/10 02:03:21;;;;;;;3.65;3.35;;;8.40;99.90;;;;;;5019555;28;20038;-77
2022/01/10 02:05:47;;;;;;;4.95;3.10;;;8.30;99.90;;;;;;5019468;28;20133;-77
2022/01/10 02:08:13;;;;;;;3.33;2.90;;;8.40;99.90;;;;;;5018964;28;20030;-77
2022/01/10 02:10:39;;;;;;;6.22;3.30;;;8.30;99.90;;;;;;5019429;28;20076;-77
2022/01/10 02:13:04;;;;;;;6.50;3.35;;;8.30;99.90;;;;;;5019581;28;20037;-77
2022/01/10 02:15:47;;;;;;;3.45;3.10;;;8.30;99.90;;;;;;5019334;28;20593;-77
2022/01/10 02:18:15;;;;;;;3.50;3.20;;;8.30;99.90;;;;;;5019302;28;20029;-77
2022/01/10 02:20:41;;;;;;;4.53;3.38;;;8.30;99.90;;;;;;5018989;28;20435;-77
2022/01/10 02:23:06;;;;;;;3.75;3.45;;;8.30;99.90;;;;;;5018955;28;20033;-77
2022/01/10 02:25:32;;;;;;;4.63;3.00;;;8.30;99.90;;;;;;5019008;28;20097;-77
2022/01/10 02:27:59;;;;;;;3.95;2.65;;;8.30;99.90;;;;;;5018930;28;20026;-77
2022/01/10 02:30:26;;;;;;;4.18;2.80;;;8.30;99.90;;;;;;5019138;28;20018;-77
2022/01/10 02:32:52;;;;;;;3.10;2.60;;;8.20;99.90;;;;;;5019025;28;20018;-77
2022/01/10 02:35:20;;;;;;;2.83;2.55;;;8.30;99.90;;;;;;5018670;28;20180;-77
2022/01/10 02:37:47;;;;;;;2.72;2.53;;;8.20;99.90;;;;;;5018671;28;20025;-77
2022/01/10 02:40:14;;;;;;;2.40;2.20;;;8.20;99.90;;;;;;5018711;28;20022;-77
2022/01/10 02:42:40;;;;;;;2.60;2.40;;;8.10;99.90;;;;;;5018958;28;20034;-77
2022/01/10 02:45:07;;;;;;;2.55;2.10;;;8.10;99.90;;;;;;5018611;28;20061;-77
2022/01/10 02:47:33;;;;;;;2.40;2.20;;;8.10;99.90;;;;;;5017332;28;20026;-76
2022/01/10 02:49:59;;;;;;;3.30;3.00;;;8.10;99.90;;;;;;5018526;28;20093;-77
2022/01/10 02:52:25;;;;;;;2.70;2.50;;;8.10;99.90;;;;;;5016451;28;20106;-77
2022/01/10 02:54:50;;;;;;;2.50;2.30;;;8.10;99.90;;;;;;5017133;28;20584;-77
2022/01/10 02:57:16;;;;;;;3.00;2.63;;;8.10;99.90;;;;;;5017677;28;20030;-77
2022/01/10 02:59:42;;;;;;;2.90;2.70;;;8.10;99.90;;;;;;5018427;28;20030;-77
2022/01/10 03:02:09;;;;;;;4.75;3.22;;;8.10;99.90;;;;;;5017176;28;20032;-77
2022/01/10 03:04:35;;;;;;;2.97;2.78;;;8.10;99.90;;;;;;5018286;28;20022;-77
2022/01/10 03:07:01;;;;;;;3.20;2.90;;;8.10;99.90;;;;;;5016727;28;20026;-77
2022/01/10 03:09:27;;;;;;;3.63;2.75;;;8.10;99.90;;;;;;5018073;28;20038;-76
2022/01/10 03:11:53;;;;;;;3.45;3.15;;;8.10;99.90;;;;;;5017232;28;20117;-77
2022/01/10 03:14:19;;;;;;;2.80;2.60;;;8.10;99.90;;;;;;5018121;28;20018;-77
2022/01/10 03:16:45;;;;;;;3.05;2.85;;;8.10;99.90;;;;;;5018139;28;20032;-77
2022/01/10 03:19:10;;;;;;;3.58;3.08;;;8.10;99.90;;;;;;5017869;28;20498;-77
2022/01/10 03:21:36;;;;;;;4.57;3.38;;;8.10;99.90;;;;;;5017966;28;20163;-77
2022/01/10 03:24:02;;;;;;;3.30;3.08;;;8.10;99.90;;;;;;5017668;28;20107;-77
2022/01/10 03:26:28;;;;;;;3.63;3.30;;;8.10;99.90;;;;;;5017895;28;20029;-77
2022/01/10 03:28:55;;;;;;;7.47;3.85;;;8.10;99.90;;;;;;5017833;28;20018;-77
2022/01/10 03:31:20;;;;;;;4.65;4.25;;;8.10;99.90;;;;;;5018149;28;20097;-77
2022/01/10 03:33:46;;;;;;;4.13;3.83;;;8.10;99.90;;;;;;5017736;28;20055;-77
2022/01/10 03:36:12;;;;;;;4.40;3.95;;;8.10;99.90;;;;;;5016448;28;20026;-77
2022/01/10 03:38:38;;;;;;;4.40;4.00;;;8.10;99.90;;;;;;5016200;28;20109;-77
2022/01/10 03:41:03;;;;;;;6.10;4.80;;;8.10;99.90;;;;;;5016959;28;20560;-76
2022/01/10 03:43:29;;;;;;;5.95;5.00;;;8.10;99.90;;;;;;5016659;28;20022;-77
2022/01/10 03:45:57;;;;;;;5.00;4.60;;;8.10;99.90;;;;;;5017614;28;20018;-77
2022/01/10 03:48:22;;;;;;;4.95;4.50;;;8.10;99.90;;;;;;5016573;28;20033;-77
2022/01/10 03:50:48;;;;;;;4.72;4.30;;;8.10;99.90;;;;;;5016355;28;20390;-77
2022/01/10 03:53:14;;;;;;;4.50;4.10;;;8.10;99.90;;;;;;5017341;28;20022;-77
2022/01/10 03:55:40;;;;;;;4.68;4.28;;;8.10;99.90;;;;;;5016308;28;20030;-77
2022/01/10 03:58:05;;;;;;;5.15;4.60;;;8.10;99.90;;;;;;5017279;28;20450;-77
2022/01/10 04:00:31;;;;;;;5.18;4.68;;;8.10;99.90;;;;;;5017572;28;20030;-77
2022/01/10 04:03:03;;;;;;;5.30;4.80;;;8.10;99.90;;;;;;5017592;28;20076;-77
2022/01/10 04:05:28;;;;;;;5.78;5.25;;;8.10;99.90;;;;;;5016207;28;20041;-76
2022/01/10 04:07:55;;;;;;;5.78;5.18;;;8.10;99.90;;;;;;5016959;28;20022;-77
2022/01/10 04:10:21;;;;;;;6.65;5.75;;;8.10;99.90;;;;;;5017301;28;20046;-77
2022/01/10 04:12:47;;;;;;;6.55;5.95;;;8.10;99.90;;;;;;5015932;28;20025;-77
2022/01/10 04:15:13;;;;;;;7.10;5.68;;;8.10;99.90;;;;;;5016117;28;20113;-77
2022/01/10 04:17:38;;;;;;;6.18;5.60;;;8.10;99.90;;;;;;5017426;28;20026;-77
2022/01/10 04:20:05;;;;;;;6.63;6.00;;;8.10;99.90;;;;;;5017239;28;20057;-77
2022/01/10 04:22:31;;;;;;;4.80;4.40;;;8.10;99.90;;;;;;5004949;28;20092;-77
2022/01/10 04:24:57;;;;;;;5.38;4.88;;;8.10;99.90;;;;;;5017417;28;20026;-77
2022/01/10 04:27:23;;;;;;;9.68;4.80;;;8.10;99.90;;;;;;5017013;28;20030;-77
2022/01/10 04:29:49;;;;;;;4.85;3.40;;;8.10;99.90;;;;;;5016031;28;20022;-76
2022/01/10 04:32:15;;;;;;;4.90;4.50;;;8.10;99.90;;;;;;5016990;28;20021;-77
2022/01/10 04:34:40;;;;;;;4.38;3.97;;;8.10;99.90;;;;;;5015696;28;20028;-76
2022/01/10 04:37:07;;;;;;;4.25;3.85;;;8.10;99.90;;;;;;5015567;28;20034;-76
2022/01/10 04:39:33;;;;;;;4.03;3.63;;;8.10;99.90;;;;;;5017231;28;20030;-76
2022/01/10 04:41:59;;;;;;;3.60;3.30;;;8.10;99.90;;;;;;5015592;28;20486;-78
2022/01/10 04:44:25;;;;;;;3.53;3.22;;;8.10;99.90;;;;;;5017123;28;20030;-77
2022/01/10 04:46:51;;;;;;;3.55;3.20;;;8.00;99.90;;;;;;5015799;28;20033;-77
2022/01/10 04:49:21;;;;;;;3.53;3.22;;;8.10;99.90;;;;;;5016158;28;20116;-77
2022/01/10 04:51:49;;;;;;;3.20;3.00;;;8.00;99.90;;;;;;5015975;28;20022;-77
2022/01/10 04:54:16;;;;;;;3.17;2.90;;;8.00;99.90;;;;;;5015599;28;20030;-77
2022/01/10 04:56:42;;;;;;;2.90;2.70;;;8.00;99.90;;;;;;5017100;28;20044;-77
2022/01/10 04:59:08;;;;;;;2.90;2.70;;;8.00;99.90;;;;;;5016895;28;20037;-77
2022/01/10 05:01:33;;;;;;;3.50;3.10;;;8.00;99.90;;;;;;5017933;28;20029;-77
2022/01/10 05:04:00;;;;;;;3.30;3.00;;;8.00;99.90;;;;;;5016878;28;20056;-77
2022/01/10 05:06:25;;;;;;;3.50;3.20;;;8.00;99.90;;;;;;5017068;28;20022;-76
2022/01/10 05:08:51;;;;;;;3.20;2.97;;;8.00;99.90;;;;;;5016441;28;20057;-77
2022/01/10 05:11:18;;;;;;;3.08;2.78;;;8.00;99.90;;;;;;5016925;28;20049;-77
2022/01/10 05:13:44;;;;;;;3.03;2.80;;;8.00;99.90;;;;;;5015157;28;20026;-77
2022/01/10 05:16:10;;;;;;;3.30;3.00;;;8.00;99.90;;;;;;5017132;28;20033;-77
2022/01/10 05:18:38;;;;;;;3.88;2.60;;;7.90;99.90;;;;;;5016803;28;20548;-77
2022/01/10 05:21:04;;;;;;;2.92;2.72;;;7.90;99.90;;;;;;5018975;28;20109;-76
2022/01/10 05:23:30;;;;;;;3.05;2.83;;;7.90;99.90;;;;;;5020036;28;20061;-76
2022/01/10 05:25:55;;;;;;;3.10;2.90;;;7.90;99.90;;;;;;5020339;28;20065;-77
2022/01/10 05:28:21;;;;;;;3.53;3.22;;;7.90;99.90;;;;;;5019948;28;20092;-76
2022/01/10 05:30:48;;;;;;;2.90;2.70;;;7.90;99.90;;;;;;5012076;28;20022;-77
2022/01/10 05:33:14;;;;;;;3.35;3.05;;;7.90;99.90;;;;;;5045913;28;20562;-77
2022/01/10 05:35:41;;;;;;;2.70;2.50;;;7.90;99.90;;;;;;5020080;28;20097;-77
2022/01/10 05:38:07;;;;;;;3.20;2.90;;;7.90;99.90;;;;;;5018369;28;20111;-77
2022/01/10 05:40:33;;;;;;;2.70;2.50;;;7.90;99.90;;;;;;5020084;28;20077;-77
2022/01/10 05:42:59;;;;;;;2.83;2.55;;;7.90;99.90;;;;;;5018325;28;20037;-77
2022/01/10 05:45:25;;;;;;;3.00;2.80;;;7.90;99.90;;;;;;5018497;28;20443;-77
2022/01/10 05:47:51;;;;;;;2.35;2.15;;;7.90;99.90;;;;;;5019669;28;20470;-77
2022/01/10 05:50:20;;;;;;;2.50;2.30;;;7.80;99.90;;;;;;5018610;28;20058;-77
2022/01/10 05:52:46;;;;;;;3.17;2.60;;;7.80;99.90;;;;;;5019282;28;20425;-77
2022/01/10 05:55:13;;;;;;;2.72;2.53;;;7.80;99.90;;;;;;5018370;28;20020;-77
2022/01/10 05:57:38;;;;;;;2.67;2.47;;;7.80;99.90;;;;;;5019440;28;20030;-77
2022/01/10 06:00:06;;;;;;;2.70;2.50;;;7.90;99.90;;;;;;5017884;28;20037;-77
2022/01/10 06:02:31;;;;;;;3.00;2.80;;;7.80;99.90;;;;;;5013309;28;20402;-77
2022/01/10 06:04:59;;;;;;;4.90;2.67;;;7.80;99.90;;;;;;5019678;28;20026;-77
2022/01/10 06:07:25;;;;;;;3.03;2.63;;;7.90;99.90;;;;;;5018911;28;20029;-77
2022/01/10 06:09:51;;;;;;;2.85;2.60;;;7.80;99.90;;;;;;5019122;28;20414;-76
2022/01/10 06:12:16;;;;;;;4.70;2.78;;;7.90;99.90;;;;;;5018985;28;20030;-77
2022/01/10 06:14:42;;;;;;;2.95;2.65;;;7.80;99.90;;;;;;5018001;28;20022;-77
2022/01/10 06:17:08;;;;;;;3.00;2.78;;;7.90;99.90;;;;;;5019131;28;20033;-77
2022/01/10 06:19:34;;;;;;;2.75;2.55;;;7.90;99.90;;;;;;5017903;28;20022;-77
2022/01/10 06:21:59;;;;;;;4.50;2.70;;;7.90;99.90;;;;;;5018696;28;20034;-77
2022/01/10 06:24:27;;;;;;;3.90;2.72;;;7.90;99.90;;;;;;5019275;28;20026;-77
2022/01/10 06:26:53;;;;;;;3.50;3.20;;;7.90;99.90;;;;;;5018957;28;20065;-77
2022/01/10 06:29:18;;;;;;;4.05;3.30;;;7.90;99.90;;;;;;5019171;28;20018;-77
2022/01/10 06:31:44;;;;;;;3.90;3.50;;;7.90;99.90;;;;;;5018899;28;20434;-77
2022/01/10 06:34:10;;;;;;;4.13;3.50;;;7.90;99.90;;;;;;5017919;28;20108;-77
2022/01/10 06:36:36;;;;;;;5.43;3.92;;;7.90;99.90;;;;;;5018834;28;20022;-76
2022/01/10 06:39:01;;;;;;;5.68;5.07;;;7.90;99.90;;;;;;5017320;28;20038;-76
2022/01/10 06:41:27;;;;;;;5.20;4.70;;;8.00;99.90;;;;;;5018758;28;20032;-77
2022/01/10 06:43:53;;;;;;;5.45;4.82;;;8.00;99.90;;;;;;5017383;28;20026;-76
2022/01/10 06:46:18;;;;;;;6.35;5.50;;;8.00;99.90;;;;;;5017588;28;20576;-76
2022/01/10 06:48:44;;;;;;;8.27;5.97;;;8.00;99.90;;;;;;5018857;28;20029;-77
2022/01/10 06:51:10;;;;;;;8.77;6.82;;;8.00;99.90;;;;;;5018011;28;20113;-77
2022/01/10 06:53:35;;;;;;;10.00;7.32;;;8.00;99.90;;;;;;5016549;28;20018;-77
2022/01/10 06:56:01;;;;;;;12.32;7.65;;;8.00;99.90;;;;;;5017870;28;20844;-77
2022/01/10 06:58:27;;;;;;;12.18;7.45;;;7.90;99.90;;;;;;5017842;28;20057;-77
2022/01/10 07:00:54;;;;;;;8.07;6.82;;;8.00;99.90;;;;;;5047751;28;20509;-77
2022/01/10 07:03:20;;;;;;;11.30;7.20;;;8.00;99.90;;;;;;5017789;28;20454;-77
2022/01/10 07:05:45;;;;;;;9.98;7.50;;;8.00;99.90;;;;;;5017621;28;20567;-76
2022/01/10 07:08:11;;;;;;;10.90;8.30;;;7.90;99.90;;;;;;5017071;28;20022;-77
2022/01/10 07:10:37;;;;;;;11.30;8.20;;;8.00;99.90;;;;;;5017654;28;20493;-77
2022/01/10 07:13:03;;;;;;;10.40;8.68;;;7.90;99.90;;;;;;5016201;28;20049;-76
2022/01/10 07:15:29;;;;;;;10.15;7.75;;;8.00;99.90;;;;;;5049271;28;20077;-78
2022/01/10 07:17:55;;;;;;;9.65;8.57;;;8.00;99.90;;;;;;5016324;28;20022;-77
2022/01/10 07:20:21;;;;;;;10.45;8.02;;;7.90;99.90;;;;;;5017364;28;20453;-77
2022/01/10 07:22:47;;;;;;;9.85;7.38;;;7.90;99.90;;;;;;5015499;28;20022;-77
2022/01/10 07:25:13;;;;;;;6.85;5.20;;;7.90;99.90;;;;;;5049808;28;20371;-77
2022/01/10 07:27:39;;;;;;;11.13;6.72;;;7.90;99.90;;;;;;5017684;28;20108;-77
2022/01/10 07:30:05;;;;;;;9.43;6.65;;;7.90;99.90;;;;;;5017433;28;20018;-77
2022/01/10 07:32:31;;;;;;;10.60;7.88;;;7.90;99.90;;;;;;5046242;28;20023;-77
2022/01/10 07:34:57;;;;;;;10.80;7.78;;;8.00;99.90;;;;;;5008975;28;20160;-76
2022/01/10 07:37:24;;;;;;;12.68;8.32;;;7.90;99.90;;;;;;4999745;28;20073;-77
2022/01/10 07:39:51;;;;;;;11.27;7.88;;;7.90;99.90;;;;;;4999881;28;20023;-77
2022/01/10 07:42:16;;;;;;;11.40;7.53;;;7.90;99.90;;;;;;4997817;28;20109;-77
2022/01/10 07:44:42;;;;;;;9.20;6.40;;;7.90;99.90;;;;;;4999334;28;20054;-76
2022/01/10 07:47:08;;;;;;;9.45;6.65;;;7.90;99.90;;;;;;5002250;28;20033;-77
2022/01/10 07:49:35;;;;;;;11.43;8.07;;;7.90;99.90;;;;;;4999688;28;20848;-77
2022/01/10 07:52:01;;;;;;;10.60;7.53;;;7.90;99.90;;;;;;5029463;28;20037;-77
2022/01/10 07:54:27;;;;;;;9.95;7.65;;;8.00;99.90;;;;;;5030326;28;20030;-77
2022/01/10 07:56:53;;;;;;;9.93;7.95;;;8.00;99.90;;;;;;4997031;28;20023;-77
2022/01/10 07:59:21;;;;;;;9.30;7.53;;;8.00;99.90;;;;;;5000862;28;20029;-77
2022/01/10 08:01:47;;;;;;;10.98;8.48;;;8.00;99.90;;;;;;5005640;28;20045;-77
2022/01/10 08:04:14;;;;;;;11.30;8.35;;;8.00;99.90;;;;;;5014264;28;20045;-76
2022/01/10 08:06:40;;;;;;;10.80;7.60;;;8.00;99.90;;;;;;5017143;28;20030;-79
2022/01/10 08:09:06;;;;;;;8.98;6.40;;;8.00;99.90;;;;;;5015057;28;20391;-77
2022/01/10 08:11:33;;;;;;;10.32;6.82;;;8.00;99.90;;;;;;5016065;28;20022;-77
2022/01/10 08:13:58;;;;;;;8.82;6.63;;;8.00;99.90;;;;;;5017269;28;20486;-77
2022/01/10 08:16:25;;;;;;;7.45;5.90;;;8.00;99.90;;;;;;5017317;28;20026;-76
2022/01/10 08:18:50;;;;;;;7.28;5.38;;;8.00;99.90;;;;;;5017283;28;20025;-77
2022/01/10 08:21:16;;;;;;;4.32;3.92;;;8.00;99.90;;;;;;5017437;28;20372;-77
2022/01/10 08:23:42;;;;;;;7.32;4.63;;;8.00;99.90;;;;;;5017053;28;20026;-77
2022/01/10 08:26:08;;;;;;;3.35;3.05;;;7.90;99.90;;;;;;5017148;28;20057;-77
2022/01/10 08:28:35;;;;;;;3.40;3.10;;;7.90;99.90;;;;;;5015343;28;20033;-77
2022/01/10 08:31:02;;;;;;;3.20;2.90;;;7.90;99.90;;;;;;5017220;28;20041;-77
2022/01/10 08:33:27;;;;;;;4.65;3.25;;;7.90;99.90;;;;;;5005508;28;20202;-77
2022/01/10 08:35:54;;;;;;;4.85;3.10;;;7.90;99.90;;;;;;5013195;28;20062;-77
2022/01/10 08:38:20;;;;;;;11.07;6.20;;;7.90;99.90;;;;;;5015105;28;20073;-77
2022/01/10 08:40:46;;;;;;;3.60;3.13;;;7.90;99.90;;;;;;5015591;28;20026;-78
2022/01/10 08:43:12;;;;;;;3.33;3.03;;;7.90;99.90;;;;;;5015442;28;20413;-78
2022/01/10 08:45:40;;;;;;;3.97;3.05;;;7.80;99.90;;;;;;5017436;28;20057;-78
2022/01/10 08:48:06;;;;;;;6.32;2.55;;;7.80;99.90;;;;;;5015759;28;20030;-78
2022/01/10 08:50:33;;;;;;;9.40;7.72;;;7.80;99.90;;;;;;5016747;28;20033;-78
2022/01/10 08:53:04;;;;;;;4.47;3.03;;;7.80;99.90;;;;;;5048025;28;20061;-78
2022/01/10 08:55:30;;;;;;;3.83;3.50;;;7.80;99.90;;;;;;5018429;28;20022;-78
2022/01/10 08:57:56;;;;;;;15.57;6.85;;;7.90;99.90;;;;;;5019132;28;20037;-79
2022/01/10 09:00:22;;;;;;;5.80;3.90;;;7.90;99.90;;;;;;5020797;28;20065;-78
2022/01/10 09:02:47;;;;;;;6.38;3.78;;;7.90;99.90;;;;;;5020520;28;20033;-78
2022/01/10 09:05:13;;;;;;;5.72;4.15;;;7.80;99.90;;;;;;5020600;28;20088;-78
2022/01/10 09:07:39;;;;;;;6.13;3.67;;;7.80;99.90;;;;;;5019869;28;20033;-78
2022/01/10 09:10:06;;;;;;;4.13;3.45;;;7.80;99.90;;;;;;5020321;28;20058;-77
2022/01/10 09:12:32;;;;;;;3.47;3.17;;;7.80;99.90;;;;;;5019496;28;20022;-79
2022/01/10 09:14:57;;;;;;;3.40;3.10;;;7.80;99.90;;;;;;5020377;28;20084;-78
2022/01/10 09:17:23;;;;;;;6.63;3.80;;;7.80;99.90;;;;;;5018416;28;20025;-79
2022/01/10 09:19:49;;;;;;;4.78;4.28;;;7.80;99.90;;;;;;5020142;28;20026;-78
2022/01/10 09:22:15;;;;;;;4.40;4.00;;;7.80;99.90;;;;;;5017816;28;20022;-78
2022/01/10 09:24:46;;;;;;;7.70;5.25;;;7.80;99.90;;;;;;5018733;28;20121;-78
2022/01/10 09:27:13;;;;;;;5.20;4.70;;;7.90;99.90;;;;;;5018570;28;20057;-78
2022/01/10 09:29:40;;;;;;;3.97;3.25;;;7.90;99.90;;;;;;5019035;28;20445;-78
2022/01/10 09:32:07;;;;;;;4.40;3.60;;;7.90;99.90;;;;;;5019956;28;20018;-78
2022/01/10 09:34:33;;;;;;;4.18;3.78;;;7.80;99.90;;;;;;5018375;28;20076;-79
2022/01/10 09:36:59;;;;;;;4.70;4.03;;;7.80;99.90;;;;;;5017837;28;20525;-79
2022/01/10 09:39:24;;;;;;;4.18;3.63;;;7.90;99.90;;;;;;5016800;28;20102;-78
2022/01/10 09:41:51;;;;;;;6.30;4.05;;;7.90;99.90;;;;;;5016851;28;20442;-79
2022/01/10 09:44:17;;;;;;;4.25;3.88;;;7.90;99.90;;;;;;5010605;28;20056;-79
2022/01/10 09:46:48;;;;;;;4.90;3.70;;;7.80;99.90;;;;;;5016600;28;20034;-78
2022/01/10 09:49:14;;;;;;;;;;;7.90;99.90;;;;;;5008711;28;20076;-78
2022/01/10 09:51:40;;;;;;;6.30;4.97;;;7.90;99.90;;;;;;5019339;28;19909;-79
2022/01/10 09:54:06;;;;;;;13.00;4.97;;;7.80;99.90;;;;;;5011433;28;20077;-79
2022/01/10 09:56:32;;;;;;;4.93;4.28;;;7.80;99.90;;;;;;5019609;28;20018;-78
2022/01/10 09:59:01;;;;;;;4.78;4.07;;;7.90;99.90;;;;;;5019637;28;20063;-79
2022/01/10 10:01:30;;;;;;;6.95;4.80;;;7.90;99.90;;;;;;5019626;28;20050;-79
2022/01/10 10:03:59;;;;;;;7.80;5.05;;;7.80;99.90;;;;;;5018270;28;20029;-79
2022/01/10 10:06:26;;;;;;;6.75;5.97;;;7.80;99.90;;;;;;5018979;28;20026;-79
2022/01/10 10:08:52;;;;;;;7.50;5.65;;;7.80;99.90;;;;;;4993372;28;20805;-78
2022/01/10 10:11:18;;;;;;;5.55;4.95;;;7.80;99.90;;;;;;5013176;28;20406;-79
2022/01/10 10:13:56;;;;;;;5.32;4.70;;;7.80;99.90;;;;;;5017902;28;20017;-79
2022/01/10 10:16:23;;;;;;;5.30;4.80;;;7.90;99.90;;;;;;5011905;28;20509;-78
2022/01/10 10:18:50;;;;;;;5.18;3.70;;;7.80;99.90;;;;;;5001642;28;20034;-79
2022/01/10 10:21:21;;;;;;;3.80;3.42;;;7.80;99.90;;;;;;5002278;28;20026;-79
2022/01/10 10:23:48;;;;;;;4.63;3.80;;;7.80;99.90;;;;;;5015097;28;20034;-78
2022/01/10 10:26:24;;;;;;;6.28;4.88;;;7.80;99.90;;;;;;5019050;28;20029;-78
2022/01/10 10:28:52;;;;;;;6.07;5.25;;;7.80;99.90;;;;;;5017787;28;20490;-78
2022/01/10 10:31:28;;;;;;;6.95;5.30;;;7.80;99.90;;;;;;5017754;28;20041;-78
2022/01/10 10:33:56;;;;;;;5.95;4.60;;;7.80;99.90;;;;;;5018884;28;20055;-77
2022/01/10 10:36:23;;;;;;;6.78;4.53;;;7.80;99.90;;;;;;5016570;28;20115;-78
2022/01/10 10:38:48;;;;;;;7.90;5.03;;;7.80;99.90;;;;;;5012415;28;20078;-78
2022/01/10 10:41:14;;;;;;;4.72;3.85;;;7.80;99.90;;;;;;5017940;28;20084;-78
2022/01/10 10:43:42;;;;;;;5.63;4.45;;;7.80;99.90;;;;;;5016089;28;20049;-78
2022/01/10 10:46:14;;;;;;;6.53;5.53;;;7.80;99.90;;;;;;5017960;28;20487;-77
2022/01/10 10:48:41;;;;;;;7.43;5.22;;;7.80;99.90;;;;;;5017570;28;20383;-78
2022/01/10 10:51:07;;;;;;;5.10;4.60;;;7.80;99.90;;;;;;5017486;28;20470;-78
2022/01/10 10:53:32;;;;;;;6.00;5.22;;;7.80;99.90;;;;;;5016061;28;20112;-78
2022/01/10 10:56:01;;;;;;;4.70;3.95;;;7.80;99.90;;;;;;5005578;28;20141;-77
2022/01/10 10:58:28;;;;;;;6.65;3.78;;;7.80;99.90;;;;;;5018073;28;20474;-78
2022/01/10 11:00:55;;;;;;;4.18;3.60;;;7.80;99.90;;;;;;5012996;28;20025;-78
2022/01/10 11:03:21;;;;;;;3.63;3.33;;;7.70;99.90;;;;;;5017033;28;20057;-77
2022/01/10 11:05:48;;;;;;;3.53;3.22;;;7.80;99.90;;;;;;5018400;28;20030;-78
2022/01/10 11:08:14;;;;;;;4.13;3.72;;;7.70;99.90;;;;;;5008062;28;20056;-78
2022/01/10 11:10:41;;;;;;;4.38;3.03;;;7.80;99.90;;;;;;5008070;28;20030;-78
2022/01/10 11:13:08;;;;;;;6.93;4.55;;;7.80;99.90;;;;;;5015810;28;20022;-78
2022/01/10 11:15:38;;;;;;;3.80;3.10;;;7.80;99.90;;;;;;5049365;28;20013;-79
2022/01/10 11:18:07;;;;;;;3.78;2.97;;;7.80;99.90;;;;;;5016243;28;20432;-79
2022/01/10 11:20:41;;;;;;;4.13;3.08;;;7.80;99.90;;;;;;5037876;28;20088;-79
2022/01/10 11:23:08;;;;;;;3.10;2.67;;;7.80;99.90;;;;;;5016661;28;20032;-79
2022/01/10 11:25:36;;;;;;;4.55;2.95;;;7.80;99.90;;;;;;5016538;28;20020;-79
2022/01/10 11:28:23;;;;;;;3.13;2.83;;;7.80;99.90;;;;;;5016408;28;20040;-79
2022/01/10 11:30:53;;;;;;;3.40;3.10;;;7.80;99.90;;;;;;5048346;28;20441;-79
2022/01/10 11:33:26;;;;;;;3.08;2.78;;;7.80;99.90;;;;;;5016571;28;20018;-79
2022/01/10 11:36:03;;;;;;;3.42;3.13;;;7.90;99.90;;;;;;5004535;28;20021;-79
2022/01/10 11:38:42;;;;;;;2.67;2.35;;;7.90;99.90;;;;;;5025771;28;20022;-79
2022/01/10 11:41:25;;;;;;;3.00;2.70;;;7.90;99.90;;;;;;5049103;28;20017;-79
2022/01/10 11:44:01;;;;;;;4.53;3.03;;;7.80;99.90;;;;;;5017445;28;20026;-79
2022/01/10 11:46:38;;;;;;;3.20;2.90;;;7.90;99.90;;;;;;5014244;28;20038;-79
2022/01/10 11:49:10;;;;;;;3.10;2.80;;;7.80;99.90;;;;;;5006108;28;20030;-80
2022/01/10 11:51:45;;;;;;;5.90;3.13;;;7.80;99.90;;;;;;5004296;28;20033;-78
2022/01/10 11:54:17;;;;;;;4.95;3.10;;;7.80;99.90;;;;;;5011981;28;20033;-79
2022/01/10 11:57:00;;;;;;;4.00;3.20;;;7.90;99.90;;;;;;4999822;28;20045;-79
2022/01/10 11:59:36;;;;;;;3.63;3.33;;;7.90;99.90;;;;;;5017477;28;20026;-79
2022/01/10 12:02:19;;;;;;;3.22;2.92;;;7.80;99.90;;;;;;5016178;28;20139;-78
2022/01/10 12:04:46;;;;;;;3.50;3.15;;;7.80;99.90;;;;;;5010354;28;20077;-80
2022/01/10 12:07:15;;;;;;;3.50;3.05;;;7.90;99.90;;;;;;5015334;28;20080;-79
2022/01/10 12:09:41;;;;;;;3.90;3.60;;;7.80;99.90;;;;;;5005182;28;20038;-79
2022/01/10 12:12:09;;;;;;;8.90;3.92;;;7.90;99.90;;;;;;4987395;28;20557;-79
2022/01/10 12:14:35;;;;;;;8.30;5.50;;;7.90;99.90;;;;;;5017482;28;20026;-79
2022/01/10 12:17:01;;;;;;;3.97;3.60;;;7.90;99.90;;;;;;5013425;28;20037;-79
2022/01/10 12:19:28;;;;;;;7.22;3.30;;;7.90;99.90;;;;;;5016347;28;20116;-79
2022/01/10 12:21:54;;;;;;;4.28;3.58;;;7.80;99.90;;;;;;5048644;28;20454;-79
2022/01/10 12:24:21;;;;;;;3.85;3.20;;;7.90;99.90;;;;;;5016062;28;20033;-79
2022/01/10 12:26:47;;;;;;;4.90;3.42;;;7.90;99.90;;;;;;5016888;28;20026;-79
2022/01/10 12:29:14;;;;;;;3.67;3.28;;;7.90;99.90;;;;;;5018278;28;20025;-79
2022/01/10 12:31:43;;;;;;;3.88;3.28;;;7.80;99.90;;;;;;5018366;28;20026;-79
2022/01/10 12:34:10;;;;;;;8.23;5.20;;;7.90;99.90;;;;;;4994028;28;20018;-79
2022/01/10 12:36:38;;;;;;;5.60;4.38;;;7.90;99.90;;;;;;5017128;28;20064;-77
2022/01/10 12:39:22;;;;;;;5.80;4.63;;;7.80;99.90;;;;;;5018107;28;20494;-78
2022/01/10 12:41:49;;;;;;;5.35;4.30;;;7.80;99.90;;;;;;5015487;28;20030;-77
2022/01/10 12:44:15;;;;;;;6.10;4.05;;;7.80;99.90;;;;;;5032262;28;20048;-78
2022/01/10 12:46:41;;;;;;;6.03;4.20;;;7.80;99.90;;;;;;5006373;28;20050;-77
2022/01/10 12:49:12;;;;;;;5.63;3.53;;;7.80;99.90;;;;;;4999057;28;20018;-78
2022/01/10 12:51:39;;;;;;;;;;;7.90;99.90;;;;;;4993128;28;20061;-77
2022/01/10 12:54:11;;;;;;;4.28;3.75;;;7.80;99.90;;;;;;4992057;28;19918;-79
2022/01/10 12:56:37;;;;;;;5.43;3.55;;;7.80;99.90;;;;;;4991157;28;20022;-78
2022/01/10 12:59:03;;;;;;;6.78;5.13;;;7.80;99.90;;;;;;5005127;28;20101;-77
2022/01/10 13:01:29;;;;;;;5.07;4.57;;;7.90;99.90;;;;;;4988542;28;20022;-78
2022/01/10 13:03:57;;;;;;;6.63;5.15;;;7.90;99.90;;;;;;4986681;28;20022;-78
2022/01/10 13:06:27;;;;;;;9.65;8.07;;;7.90;99.90;;;;;;4990325;28;20026;-77
2022/01/10 13:08:54;;;;;;;14.23;9.75;;;7.90;99.90;;;;;;4991646;28;20042;-77